Time;durP1;ratioP1;P1;durP2;ratioP2;P2;SDS_P1;SDS_P2;PMS_P1;PMS_P2;Temp;Humidity;BMP_temperature;BMP_pressure;BME280_temperature;BME280_humidity;BME280_pressure;Samples;Min_cycle;Max_cycle;Signal;HPM_P1;HPM_P2
2023/01/29 00:00:37;;;;;;;10.40;7.90;;;;;;;5.93;100.00;101807.91;2089121;28;20184;-59
2023/01/29 00:01:37;;;;;;;8.87;7.50;;;;;;;5.95;100.00;101802.84;2080927;28;20217;-59
2023/01/29 00:02:38;;;;;;;9.50;8.00;;;;;;;5.96;100.00;101815.44;2087847;28;20279;-60
2023/01/29 00:03:40;;;;;;;10.37;7.77;;;;;;;5.95;100.00;101808.34;2088953;28;20195;-59
2023/01/29 00:04:40;;;;;;;11.43;7.85;;;;;;;5.92;100.00;101807.13;2084272;28;20204;-59
2023/01/29 00:05:41;;;;;;;10.77;7.30;;;;;;;5.96;100.00;101809.94;2080733;28;20200;-59
2023/01/29 00:06:42;;;;;;;9.23;7.23;;;;;;;5.88;100.00;101813.75;2082741;28;20626;-59
2023/01/29 00:07:43;;;;;;;9.88;7.78;;;;;;;5.93;100.00;101814.22;2087648;28;20199;-59
2023/01/29 00:08:43;;;;;;;10.73;8.20;;;;;;;5.91;100.00;101808.31;2080741;28;20208;-60
2023/01/29 00:09:44;;;;;;;10.17;8.10;;;;;;;5.92;100.00;101814.59;2080448;28;20195;-59
2023/01/29 00:10:44;;;;;;;9.33;7.43;;;;;;;5.95;100.00;101814.63;2081049;28;20585;-59
2023/01/29 00:11:44;;;;;;;9.80;7.80;;;;;;;6.01;100.00;101812.38;2080593;28;20262;-59
2023/01/29 00:12:45;;;;;;;10.10;7.90;;;;;;;6.06;100.00;101817.53;2080888;28;20278;-59
2023/01/29 00:13:46;;;;;;;11.00;8.17;;;;;;;6.05;100.00;101813.22;2084398;28;20193;-59
2023/01/29 00:14:46;;;;;;;11.13;7.70;;;;;;;6.01;100.00;101807.63;2086401;28;20181;-60
2023/01/29 00:15:55;;;;;;;11.13;7.80;;;;;;;5.81;100.00;101775.13;2080611;28;20177;-59
2023/01/29 00:16:56;;;;;;;10.13;7.72;;;;;;;6.04;100.00;101817.09;2082112;28;20179;-59
2023/01/29 00:17:56;;;;;;;9.43;8.10;;;;;;;6.06;100.00;101820.28;2088573;28;20182;-59
2023/01/29 00:18:57;;;;;;;10.57;7.73;;;;;;;6.05;100.00;101825.00;2099739;28;20215;-59
2023/01/29 00:19:57;;;;;;;9.43;7.67;;;;;;;6.02;100.00;101828.50;2097468;28;20191;-59
2023/01/29 00:20:58;;;;;;;8.90;7.33;;;;;;;5.58;100.00;101766.13;2097421;28;20575;-59
2023/01/29 00:21:58;;;;;;;8.70;7.20;;;;;;;5.94;100.00;101832.31;2097141;28;20247;-59
2023/01/29 00:22:59;;;;;;;11.37;8.30;;;;;;;5.91;100.00;101829.50;2097248;28;20183;-59
2023/01/29 00:23:59;;;;;;;9.47;7.80;;;;;;;5.90;100.00;101833.44;2099838;28;20667;-59
2023/01/29 00:25:00;;;;;;;10.07;7.70;;;;;;;5.93;100.00;101835.44;2103989;28;20663;-59
2023/01/29 00:26:00;;;;;;;8.67;7.13;;;;;;;5.99;100.00;101833.94;2096628;28;20195;-59
2023/01/29 00:27:00;;;;;;;10.57;8.30;;;;;;;5.53;100.00;101759.00;2097378;28;20491;-60
2023/01/29 00:28:01;;;;;;;9.47;8.10;;;;;;;6.04;100.00;101837.16;2104669;28;20220;-59
2023/01/29 00:29:01;;;;;;;10.27;8.17;;;;;;;6.05;100.00;101847.00;2105669;28;20214;-59
2023/01/29 00:30:11;;;;;;;10.13;7.80;;;;;;;5.86;100.00;101814.13;2105212;28;20190;-59
2023/01/29 00:31:18;;;;;;;9.05;7.40;;;;;;;6.06;100.00;101837.56;2104160;28;20250;-59
2023/01/29 00:32:18;;;;;;;9.93;7.85;;;;;;;6.11;100.00;101841.97;2110136;28;20650;-59
2023/01/29 00:33:19;;;;;;;9.63;7.90;;;;;;;5.23;100.00;101716.16;2107518;28;20638;-59
2023/01/29 00:34:20;;;;;;;10.97;8.03;;;;;;;6.02;100.00;101827.69;2099159;28;20184;-60
2023/01/29 00:35:20;;;;;;;10.60;8.25;;;;;;;6.05;100.00;101843.47;2105379;28;20178;-59
2023/01/29 00:36:21;;;;;;;9.30;7.53;;;;;;;5.58;100.00;101774.38;2105307;28;20171;-59
2023/01/29 00:37:21;;;;;;;9.50;7.73;;;;;;;5.90;100.00;101847.19;2097332;28;20191;-59
2023/01/29 00:38:22;;;;;;;9.57;7.47;;;;;;;5.90;100.00;101850.72;2089371;28;20299;-59
2023/01/29 00:39:24;;;;;;;10.00;7.70;;;;;;;5.88;100.00;101846.75;2094097;28;20179;-59
2023/01/29 00:40:25;;;;;;;9.50;7.88;;;;;;;5.87;100.00;101845.97;2100282;28;20205;-59
2023/01/29 00:45:26;;;;;;;9.30;6.88;;;;;;;5.80;100.00;101854.09;2104983;28;20197;-60
2023/01/29 00:46:26;;;;;;;8.73;7.27;;;;;;;5.84;100.00;101848.69;2105251;28;20182;-59
2023/01/29 00:47:29;;;;;;;9.10;7.10;;;;;;;5.76;100.00;101839.50;2105429;28;20629;-59
2023/01/29 00:48:30;;;;;;;9.60;7.40;;;;;;;5.78;100.00;101861.91;2105535;28;20650;-60
2023/01/29 00:49:30;;;;;;;9.33;7.17;;;;;;;5.73;100.00;101853.19;2101512;28;20581;-59
2023/01/29 00:50:30;;;;;;;9.40;7.57;;;;;;;5.73;100.00;101851.22;2096839;28;20565;-59
2023/01/29 00:51:31;;;;;;;9.03;7.20;;;;;;;5.71;100.00;101863.75;2097021;28;20203;-59
2023/01/29 00:52:32;;;;;;;9.17;7.13;;;;;;;5.66;100.00;101859.38;2097534;28;20265;-60
2023/01/29 00:53:32;;;;;;;8.63;7.20;;;;;;;5.69;100.00;101861.38;2105570;28;20570;-59
2023/01/29 00:54:33;;;;;;;8.77;7.10;;;;;;;5.68;100.00;101853.50;2098285;28;20437;-59
2023/01/29 00:55:33;;;;;;;10.07;7.50;;;;;;;5.74;100.00;101865.78;2097204;28;20280;-59
2023/01/29 00:56:36;;;;;;;8.77;6.83;;;;;;;5.75;100.00;101870.13;2097960;28;20656;-59
2023/01/29 00:57:37;;;;;;;9.05;7.15;;;;;;;5.71;100.00;101863.75;2098587;28;20176;-59
2023/01/29 00:58:37;;;;;;;9.30;7.13;;;;;;;5.33;100.00;101806.22;2099235;28;20658;-59
2023/01/29 00:59:38;;;;;;;9.40;7.20;;;;;;;5.71;100.00;101861.00;2100088;28;20559;-59
2023/01/29 01:00:38;;;;;;;9.23;7.40;;;;;;;5.75;100.00;101861.88;2106867;28;20178;-59
2023/01/29 01:03:07;;;;;;;9.05;7.05;;;;;;;5.73;100.00;101859.47;2098959;28;20163;-59
2023/01/29 01:04:10;;;;;;;10.27;6.82;;;;;;;5.70;100.00;101865.72;2099394;28;20189;-59
2023/01/29 01:05:18;;;;;;;8.98;7.05;;;;;;;4.88;100.00;101743.03;2107284;28;20599;-59
2023/01/29 01:06:18;;;;;;;8.68;6.68;;;;;;;5.40;100.00;101829.13;2098547;28;20652;-59
2023/01/29 01:07:19;;;;;;;7.90;6.50;;;;;;;5.63;100.00;101870.31;2098781;28;20594;-59
2023/01/29 01:11:02;;;;;;;8.27;6.50;;;;;;;5.73;100.00;101873.22;2098794;28;20160;-60
2023/01/29 01:12:03;;;;;;;8.23;6.60;;;;;;;5.74;100.00;101866.56;2098828;28;20637;-59
2023/01/29 01:13:05;;;;;;;7.37;6.30;;;;;;;5.77;100.00;101871.34;2107156;28;20630;-59
2023/01/29 01:14:06;;;;;;;7.18;5.93;;;;;;;5.80;100.00;101875.34;2104302;28;20637;-59
2023/01/29 01:15:07;;;;;;;8.10;6.63;;;;;;;5.78;100.00;101870.16;2106914;28;20624;-59
2023/01/29 01:16:12;;;;;;;7.33;5.90;;;;;;;5.78;100.00;101888.63;2106748;28;20272;-59
2023/01/29 01:17:14;;;;;;;9.88;6.88;;;;;;;5.80;100.00;101869.84;2107032;28;20181;-59
2023/01/29 01:18:15;;;;;;;8.70;6.43;;;;;;;5.79;100.00;101873.72;2110480;28;20274;-60
2023/01/29 01:19:15;;;;;;;8.97;6.90;;;;;;;5.39;100.00;101805.50;2112980;28;20275;-59
2023/01/29 01:20:16;;;;;;;7.70;6.40;;;;;;;5.78;100.00;101850.09;2106587;28;20412;-59
2023/01/29 01:21:16;;;;;;;7.27;6.30;;;;;;;5.92;100.00;101869.63;2107067;28;20175;-59
2023/01/29 01:22:17;;;;;;;6.97;6.00;;;;;;;5.36;100.00;101776.03;2107192;28;20210;-59
2023/01/29 01:23:18;;;;;;;7.80;6.00;;;;;;;5.95;100.00;101869.66;2106476;28;20659;-59
2023/01/29 01:24:19;;;;;;;7.80;6.47;;;;;;;5.27;100.00;101756.25;2106952;28;20556;-59
2023/01/29 01:25:21;;;;;;;8.23;6.53;;;;;;;5.74;100.00;101836.31;2101998;28;20224;-59
2023/01/29 01:26:21;;;;;;;7.65;6.75;;;;;;;5.96;100.00;101873.22;2102081;28;20186;-59
2023/01/29 01:27:24;;;;;;;8.37;6.77;;;;;;;6.01;100.00;101872.91;2094907;28;20232;-59
2023/01/29 01:28:25;;;;;;;7.25;5.90;;;;;;;6.07;100.00;101865.91;2091793;28;20268;-59
2023/01/29 01:29:25;;;;;;;7.45;6.25;;;;;;;6.09;100.00;101872.63;2106664;28;20182;-59
2023/01/29 01:30:26;;;;;;;7.70;6.13;;;;;;;5.89;100.00;101843.63;2106801;28;20672;-59
2023/01/29 01:31:26;;;;;;;7.97;6.63;;;;;;;6.05;100.00;101871.78;2106810;28;20183;-59
2023/01/29 01:32:27;;;;;;;7.97;6.07;;;;;;;6.06;100.00;101880.84;2100003;28;20198;-59
2023/01/29 01:33:28;;;;;;;7.80;5.80;;;;;;;6.06;100.00;101872.59;2104051;28;20189;-59
2023/01/29 01:34:28;;;;;;;6.87;5.70;;;;;;;6.07;100.00;101877.72;2106881;28;20661;-59
2023/01/29 01:35:29;;;;;;;6.93;5.87;;;;;;;5.93;100.00;101857.44;2103415;28;20577;-59
2023/01/29 01:36:31;;;;;;;7.00;5.97;;;;;;;6.01;100.00;101873.69;2091497;28;20254;-60
2023/01/29 01:37:31;;;;;;;6.60;5.55;;;;;;;6.05;100.00;101869.03;2096689;28;20181;-59
2023/01/29 01:38:32;;;;;;;7.10;5.73;;;;;;;6.04;100.00;101872.13;2098540;28;20178;-59
2023/01/29 01:39:32;;;;;;;6.60;5.77;;;;;;;5.90;100.00;101858.19;2098540;28;20218;-59
2023/01/29 01:40:33;;;;;;;7.13;6.00;;;;;;;6.05;100.00;101869.03;2105654;28;20218;-59
2023/01/29 01:41:33;;;;;;;8.13;6.33;;;;;;;6.01;100.00;101868.16;2100565;28;20180;-59
2023/01/29 01:42:33;;;;;;;6.80;5.60;;;;;;;5.92;100.00;101856.66;2098279;28;20203;-59
2023/01/29 01:43:50;;;;;;;7.60;5.93;;;;;;;5.97;100.00;101867.34;2098270;28;20198;-59
2023/01/29 01:45:03;;;;;;;6.97;5.60;;;;;;;5.99;100.00;101869.72;2098520;28;20187;-60
2023/01/29 01:46:04;;;;;;;7.18;6.10;;;;;;;6.00;100.00;101872.09;2103417;28;20205;-59
2023/01/29 01:47:04;;;;;;;6.50;5.47;;;;;;;5.77;100.00;101841.09;2102722;28;20734;-59
2023/01/29 01:48:13;;;;;;;6.73;5.30;;;;;;;5.97;100.00;101875.59;2099589;28;20198;-59
2023/01/29 01:49:20;;;;;;;6.40;5.45;;;;;;;5.94;100.00;101865.34;2106633;28;20618;-59
2023/01/29 01:50:28;;;;;;;6.65;5.57;;;;;;;5.97;100.00;101872.06;2104189;28;20175;-59
2023/01/29 01:51:31;;;;;;;6.70;5.50;;;;;;;5.97;100.00;101874.81;2098164;28;20175;-59
2023/01/29 01:52:35;;;;;;;7.57;6.13;;;;;;;5.91;100.00;101863.34;2098503;28;20179;-59
2023/01/29 01:53:39;;;;;;;5.55;4.93;;;;;;;6.00;100.00;101865.81;2098212;28;20190;-60
2023/01/29 01:54:39;;;;;;;6.70;5.45;;;;;;;6.00;100.00;101863.06;2098514;28;20179;-59
2023/01/29 01:55:46;;;;;;;7.07;5.60;;;;;;;6.07;100.00;101872.22;2106892;28;20264;-59
2023/01/29 01:56:53;;;;;;;6.50;5.43;;;;;;;5.51;100.00;101785.28;2106627;28;20201;-59
2023/01/29 01:58:02;;;;;;;9.02;5.60;;;;;;;5.49;100.00;101779.38;2098681;28;20204;-60
2023/01/29 01:59:06;;;;;;;6.20;5.25;;;;;;;5.91;100.00;101859.78;2098620;28;20183;-59
2023/01/29 02:00:11;;;;;;;6.25;5.07;;;;;;;6.03;100.00;101867.81;2097662;28;20175;-59
2023/01/29 02:01:12;;;;;;;5.95;4.97;;;;;;;6.06;100.00;101878.84;2095168;28;20195;-60
2023/01/29 02:09:35;;;;;;;6.18;5.07;;;;;;;5.76;100.00;101858.75;2098320;28;20235;-59
2023/01/29 02:10:43;;;;;;;6.03;4.70;;;;;;;5.90;100.00;101874.72;2098096;28;20164;-59
2023/01/29 02:11:44;;;;;;;6.47;4.90;;;;;;;5.19;100.00;101768.28;2098158;28;20258;-59
2023/01/29 02:12:45;;;;;;;5.93;4.77;;;;;;;5.84;100.00;101865.97;2098429;28;20202;-59
2023/01/29 02:13:45;;;;;;;6.38;5.10;;;;;;;5.91;100.00;101879.03;2099941;28;20675;-59
2023/01/29 02:14:46;;;;;;;6.10;5.20;;;;;;;5.92;100.00;101881.44;2106454;28;20563;-59
2023/01/29 02:15:47;;;;;;;6.63;4.63;;;;;;;5.91;100.00;101876.28;2110352;28;20553;-60
2023/01/29 02:16:48;;;;;;;5.90;4.90;;;;;;;5.86;100.00;101876.59;2112186;28;20416;-59
2023/01/29 02:17:49;;;;;;;6.67;5.30;;;;;;;5.89;100.00;101879.41;2107713;28;20175;-60
2023/01/29 02:18:50;;;;;;;6.40;5.20;;;;;;;5.89;100.00;101884.13;2114288;28;20670;-59
2023/01/29 02:20:14;;;;;;;5.70;4.87;;;;;;;5.86;100.00;101876.59;2097902;28;20270;-59
2023/01/29 02:21:54;;;;;;;5.72;4.63;;;;;;;5.86;100.00;101880.16;2098095;28;20217;-59
2023/01/29 02:23:01;;;;;;;6.07;4.75;;;;;;;5.78;100.00;101883.13;2103847;28;20285;-59
2023/01/29 02:24:23;;;;;;;6.00;4.95;;;;;;;5.05;100.00;101750.78;2106470;28;20269;-59
2023/01/29 02:25:49;;;;;;;5.45;4.50;;;;;;;5.85;100.00;101875.03;2099414;28;20672;-59
2023/01/29 02:27:03;;;;;;;5.60;4.63;;;;;;;5.73;100.00;101864.19;2105489;28;20235;-59
2023/01/29 02:28:25;;;;;;;5.55;4.72;;;;;;;5.79;100.00;101879.22;2106472;28;20647;-59
2023/01/29 02:29:46;;;;;;;5.80;4.40;;;;;;;5.77;100.00;101876.03;2101459;28;20191;-59
2023/01/29 02:30:58;;;;;;;5.88;4.80;;;;;;;5.68;100.00;101870.00;2098379;28;20222;-59
2023/01/29 02:32:14;;;;;;;5.45;4.45;;;;;;;5.73;100.00;101875.19;2105040;28;20182;-59
2023/01/29 02:33:46;;;;;;;5.95;4.75;;;;;;;5.67;100.00;101882.97;2098419;28;20679;-59
2023/01/29 02:35:28;;;;;;;5.80;4.70;;;;;;;5.69;100.00;101877.09;2099779;28;20591;-60
2023/01/29 02:36:44;;;;;;;6.03;4.65;;;;;;;5.71;100.00;101881.06;2104152;28;20663;-60
2023/01/29 02:38:02;;;;;;;5.82;4.63;;;;;;;5.41;100.00;101822.44;2106408;28;20702;-59
2023/01/29 02:39:05;;;;;;;5.22;3.95;;;;;;;5.79;100.00;101882.75;2106734;28;20214;-59
2023/01/29 02:40:24;;;;;;;5.35;4.50;;;;;;;5.79;100.00;101880.00;2105783;28;20195;-59
2023/01/29 02:41:53;;;;;;;5.53;4.35;;;;;;;5.77;100.00;101882.34;2106631;28;20257;-59
2023/01/29 02:43:14;;;;;;;6.18;4.70;;;;;;;5.78;100.00;101892.19;2100241;28;20175;-59
2023/01/29 02:44:41;;;;;;;5.32;4.22;;;;;;;5.17;100.00;101794.53;2106353;28;20664;-60
2023/01/29 02:46:31;;;;;;;5.72;4.43;;;;;;;5.82;100.00;101890.31;2106084;28;20177;-59
2023/01/29 02:47:54;;;;;;;5.53;4.50;;;;;;;5.86;100.00;101879.34;2097724;28;20305;-59
2023/01/29 02:49:02;;;;;;;5.38;4.20;;;;;;;5.91;100.00;101890.84;2101690;28;20204;-60
2023/01/29 02:50:20;;;;;;;5.60;4.65;;;;;;;5.37;100.00;101796.03;2105917;28;20284;-59
2023/01/29 02:51:31;;;;;;;5.63;4.60;;;;;;;5.99;100.00;101883.47;2103142;28;20222;-59
2023/01/29 02:52:49;;;;;;;5.55;4.38;;;;;;;6.02;100.00;101882.75;2109771;28;20280;-59
2023/01/29 02:54:02;;;;;;;5.95;4.55;;;;;;;5.76;100.00;101847.75;2107471;28;20683;-60
2023/01/29 02:55:12;;;;;;;5.97;5.13;;;;;;;5.61;100.00;101806.63;2114081;28;20194;-59
2023/01/29 02:56:22;;;;;;;5.70;4.65;;;;;;;6.06;100.00;101881.63;2106801;28;20187;-60
2023/01/29 02:57:28;;;;;;;5.25;4.45;;;;;;;6.10;100.00;101887.97;2106025;28;20637;-59
2023/01/29 02:58:59;;;;;;;5.80;4.55;;;;;;;5.89;100.00;101853.88;2098643;28;20191;-59
2023/01/29 03:00:06;;;;;;;5.88;4.93;;;;;;;6.08;100.00;101884.81;2098643;28;20175;-59
2023/01/29 03:01:13;;;;;;;6.00;5.00;;;;;;;6.07;100.00;101885.16;2105468;28;20174;-59
2023/01/29 03:02:19;;;;;;;7.50;5.03;;;;;;;6.13;100.00;101886.44;2098243;28;20246;-60
2023/01/29 03:03:25;;;;;;;6.55;5.15;;;;;;;6.14;100.00;101886.06;2106084;28;20164;-59
2023/01/29 03:04:31;;;;;;;5.32;4.47;;;;;;;6.08;100.00;101890.31;2115006;28;20170;-60
2023/01/29 03:05:53;;;;;;;5.50;4.82;;;;;;;6.09;100.00;101891.09;2097984;28;20176;-59
2023/01/29 03:07:00;;;;;;;6.28;5.03;;;;;;;6.07;100.00;101887.91;2097854;28;20190;-59
2023/01/29 03:08:08;;;;;;;6.32;4.53;;;;;;;6.07;100.00;101885.97;2097672;28;20235;-59
2023/01/29 03:09:40;;;;;;;6.00;5.10;;;;;;;6.08;100.00;101889.50;2098414;28;20220;-60
2023/01/29 03:11:00;;;;;;;5.60;4.78;;;;;;;6.06;100.00;101886.34;2105794;28;20214;-59
2023/01/29 03:12:17;;;;;;;6.80;5.00;;;;;;;6.09;100.00;101885.59;2100449;28;20175;-59
2023/01/29 03:13:31;;;;;;;5.93;4.63;;;;;;;6.05;100.00;101888.28;2104372;28;20605;-60
2023/01/29 03:16:06;;;;;;;6.07;4.78;;;;;;;6.09;100.00;101888.34;2097497;28;20246;-59
2023/01/29 03:17:09;;;;;;;6.18;4.65;;;;;;;6.06;100.00;101887.13;2098130;28;20159;-59
2023/01/29 03:18:14;;;;;;;6.53;4.88;;;;;;;5.88;100.00;101853.06;2097803;28;20572;-59
2023/01/29 03:19:23;;;;;;;6.82;5.15;;;;;;;5.99;100.00;101880.72;2105090;28;20231;-59
2023/01/29 03:20:31;;;;;;;5.70;4.78;;;;;;;5.99;100.00;101878.75;2097735;28;20288;-59
2023/01/29 03:21:50;;;;;;;7.80;5.38;;;;;;;5.67;100.00;101832.66;2097588;28;20249;-60
2023/01/29 03:22:57;;;;;;;5.82;4.78;;;;;;;5.92;100.00;101886.94;2097597;28;20170;-60
2023/01/29 03:32:07;;;;;;;5.50;4.38;;;;;;;5.81;100.00;101894.22;2097900;28;20163;-60
2023/01/29 03:33:10;;;;;;;6.00;4.70;;;;;;;5.80;100.00;101889.88;2106085;28;20163;-60
2023/01/29 03:34:27;;;;;;;5.50;4.40;;;;;;;5.78;100.00;101894.94;2105782;28;20186;-61
2023/01/29 03:35:34;;;;;;;5.43;4.57;;;;;;;5.77;100.00;101896.09;2097513;28;20168;-61
2023/01/29 03:36:54;;;;;;;5.65;4.88;;;;;;;5.44;100.00;101842.91;2097398;28;20167;-61
2023/01/29 03:37:55;;;;;;;5.10;4.30;;;;;;;5.81;100.00;101890.69;2097227;28;20529;-60
2023/01/29 03:38:56;;;;;;;4.90;4.20;;;;;;;5.82;100.00;101890.31;2097722;28;20197;-60
2023/01/29 03:39:56;;;;;;;6.13;4.13;;;;;;;5.84;100.00;101893.47;2105193;28;20491;-60
2023/01/29 03:41:07;;;;;;;4.90;4.40;;;;;;;5.85;100.00;101897.03;2105929;28;20182;-60
2023/01/29 03:42:47;;;;;;;4.82;4.15;;;;;;;5.86;100.00;101884.84;2105796;28;20193;-60
2023/01/29 03:44:00;;;;;;;5.43;4.50;;;;;;;5.86;100.00;101896.66;2073338;28;20181;-61
2023/01/29 03:45:04;;;;;;;5.80;4.57;;;;;;;5.90;100.00;101892.00;2098274;28;20656;-60
2023/01/29 03:46:13;;;;;;;5.43;4.35;;;;;;;5.89;100.00;101890.41;2103279;28;20176;-60
2023/01/29 03:47:21;;;;;;;5.28;4.40;;;;;;;5.90;100.00;101897.50;2097376;28;20188;-60
2023/01/29 03:48:37;;;;;;;7.00;4.60;;;;;;;5.88;100.00;101888.81;2099338;28;20175;-60
2023/01/29 03:49:50;;;;;;;5.60;4.32;;;;;;;5.86;100.00;101880.16;2097009;28;20741;-60
2023/01/29 03:51:29;;;;;;;5.82;4.40;;;;;;;5.88;100.00;101888.03;2100647;28;20253;-60
2023/01/29 03:52:41;;;;;;;6.55;4.50;;;;;;;5.84;100.00;101876.97;2098293;28;20187;-60
2023/01/29 03:54:00;;;;;;;5.50;4.50;;;;;;;5.76;100.00;101891.75;2105296;28;20215;-60
2023/01/29 03:55:15;;;;;;;5.60;4.22;;;;;;;5.71;100.00;101883.81;2097041;28;20195;-60
2023/01/29 03:56:37;;;;;;;6.70;4.88;;;;;;;5.75;100.00;101898.41;2097136;28;20577;-60
2023/01/29 03:57:49;;;;;;;5.82;4.18;;;;;;;5.64;100.00;101893.91;2105512;28;20183;-60
2023/01/29 03:59:01;;;;;;;6.70;4.43;;;;;;;5.60;100.00;101895.81;2102922;28;20547;-60
2023/01/29 04:00:14;;;;;;;5.30;4.53;;;;;;;5.62;100.00;101898.97;2099841;28;20212;-60
2023/01/29 04:01:24;;;;;;;4.60;4.07;;;;;;;5.61;100.00;101891.88;2101691;28;20252;-60
2023/01/29 04:02:36;;;;;;;5.43;4.40;;;;;;;5.60;100.00;101895.81;2097293;28;20195;-60
2023/01/29 04:03:40;;;;;;;5.22;4.22;;;;;;;5.54;100.00;101895.31;2097188;28;20274;-60
2023/01/29 04:04:44;;;;;;;5.07;4.30;;;;;;;5.62;100.00;101910.78;2101024;28;20183;-60
2023/01/29 04:05:57;;;;;;;5.18;4.35;;;;;;;5.59;100.00;101888.72;2105426;28;20209;-60
2023/01/29 04:07:07;;;;;;;4.82;4.18;;;;;;;5.60;100.00;101884.81;2105571;28;20194;-60
2023/01/29 04:08:16;;;;;;;5.40;4.38;;;;;;;5.27;100.00;101832.41;2101943;28;20191;-60
2023/01/29 04:09:23;;;;;;;5.40;4.22;;;;;;;5.59;100.00;101889.50;2100901;28;20198;-61
2023/01/29 04:10:26;;;;;;;5.43;4.35;;;;;;;5.62;100.00;101897.03;2101766;28;20199;-60
2023/01/29 04:11:28;;;;;;;6.15;4.28;;;;;;;5.62;100.00;101898.97;2099654;28;20211;-60
2023/01/29 04:12:43;;;;;;;5.38;4.40;;;;;;;5.62;100.00;101897.03;2097939;28;20191;-60
2023/01/29 04:13:45;;;;;;;5.70;4.47;;;;;;;5.66;100.00;101897.88;2104288;28;20296;-60
2023/01/29 04:14:48;;;;;;;5.68;4.38;;;;;;;5.66;100.00;101895.13;2105662;28;20173;-60
2023/01/29 04:15:55;;;;;;;5.15;4.20;;;;;;;5.33;100.00;101837.22;2104702;28;20265;-60
2023/01/29 04:17:01;;;;;;;4.53;3.85;;;;;;;5.71;100.00;101896.78;2088919;28;20183;-60
2023/01/29 04:18:01;;;;;;;4.85;4.00;;;;;;;5.71;100.00;101902.28;2096854;28;20247;-60
2023/01/29 04:19:03;;;;;;;4.87;4.10;;;;;;;5.74;100.00;101912.56;2097316;28;20219;-60
2023/01/29 04:20:05;;;;;;;4.88;4.22;;;;;;;5.81;100.00;101905.25;2104088;28;20286;-60
2023/01/29 04:21:08;;;;;;;4.85;4.10;;;;;;;5.64;100.00;101880.16;2099239;28;20223;-60
2023/01/29 04:22:17;;;;;;;4.28;3.85;;;;;;;5.77;100.00;101915.34;2102719;28;20560;-60
2023/01/29 04:23:21;;;;;;;4.85;4.10;;;;;;;5.28;100.00;101840.28;2105440;28;20687;-60
2023/01/29 04:24:21;;;;;;;5.68;4.03;;;;;;;5.57;100.00;101891.03;2105600;28;20206;-60
2023/01/29 04:25:27;;;;;;;4.93;4.30;;;;;;;5.51;100.00;101914.50;2105491;28;20243;-60
2023/01/29 04:26:36;;;;;;;4.68;4.00;;;;;;;5.48;100.00;101913.28;2104959;28;20191;-60
2023/01/29 04:27:49;;;;;;;5.30;4.20;;;;;;;5.49;100.00;101914.09;2102010;28;20188;-60
2023/01/29 04:29:15;;;;;;;5.30;4.40;;;;;;;5.52;100.00;101910.59;2097219;28;20211;-60
2023/01/29 04:30:34;;;;;;;4.78;3.92;;;;;;;5.51;100.00;101907.06;2084093;28;20199;-60
2023/01/29 04:31:56;;;;;;;5.22;3.95;;;;;;;5.43;100.00;101915.56;2097142;28;20278;-59
2023/01/29 04:33:29;;;;;;;4.97;4.10;;;;;;;5.46;100.00;101901.88;2097421;28;20191;-60
2023/01/29 04:35:26;;;;;;;5.28;4.07;;;;;;;5.48;100.00;101913.28;2079619;28;20201;-60
2023/01/29 04:36:35;;;;;;;5.45;4.60;;;;;;;5.54;100.00;101916.53;2059970;28;20214;-60
2023/01/29 04:38:10;;;;;;;5.00;4.15;;;;;;;5.54;100.00;101919.28;2063156;28;20576;-61
2023/01/29 04:39:23;;;;;;;4.30;3.80;;;;;;;5.51;100.00;101923.56;2055113;28;20341;-60
2023/01/29 04:40:47;;;;;;;5.32;4.30;;;;;;;5.54;100.00;101924.78;2054839;28;20241;-60
2023/01/29 04:41:54;;;;;;;4.93;4.05;;;;;;;5.48;100.00;101924.28;2067460;28;20206;-60
2023/01/29 04:43:12;;;;;;;6.18;4.10;;;;;;;5.48;100.00;101929.00;2103201;28;20185;-60
2023/01/29 04:44:30;;;;;;;5.13;4.30;;;;;;;5.49;100.00;101925.88;2098169;28;20637;-60
2023/01/29 04:45:48;;;;;;;5.50;4.40;;;;;;;5.51;100.00;101925.50;2097207;28;20199;-60
2023/01/29 04:46:55;;;;;;;6.00;4.30;;;;;;;5.52;100.00;101930.63;2097533;28;20472;-60
2023/01/29 04:48:24;;;;;;;5.65;4.40;;;;;;;5.51;100.00;101928.25;2113298;28;20704;-60
2023/01/29 04:49:41;;;;;;;4.70;4.20;;;;;;;5.57;100.00;101933.09;2105174;28;20720;-61
2023/01/29 04:50:54;;;;;;;5.63;4.65;;;;;;;5.63;100.00;101930.81;2105413;28;20197;-60
2023/01/29 04:52:07;;;;;;;5.88;4.80;;;;;;;5.03;100.00;101841.81;2105230;28;20704;-60
2023/01/29 04:53:29;;;;;;;5.30;4.55;;;;;;;5.68;100.00;101941.50;2105475;28;20202;-61
2023/01/29 04:55:00;;;;;;;5.75;4.40;;;;;;;5.58;100.00;101940.16;2105504;28;20579;-60
2023/01/29 04:56:29;;;;;;;5.88;4.30;;;;;;;5.60;100.00;101934.31;2096787;28;20164;-60
2023/01/29 04:58:06;;;;;;;5.90;4.63;;;;;;;5.60;100.00;101937.84;2097962;28;20211;-60
2023/01/29 04:59:13;;;;;;;5.30;4.60;;;;;;;5.61;100.00;101938.63;2083652;28;20220;-61
2023/01/29 05:00:26;;;;;;;7.15;5.00;;;;;;;5.52;100.00;101936.13;2103207;28;20223;-60
2023/01/29 05:01:31;;;;;;;6.20;5.00;;;;;;;5.18;100.00;101887.63;2105251;28;20195;-60
2023/01/29 05:02:36;;;;;;;6.18;5.40;;;;;;;4.73;100.00;101823.59;2105138;28;20183;-61
2023/01/29 05:03:39;;;;;;;7.00;5.47;;;;;;;5.49;100.00;101925.88;2105272;28;20281;-60
2023/01/29 05:04:43;;;;;;;6.53;5.47;;;;;;;5.14;100.00;101881.25;2096349;28;20226;-60
2023/01/29 05:05:46;;;;;;;6.70;4.93;;;;;;;5.54;100.00;101944.03;2088288;28;20202;-60
2023/01/29 05:06:48;;;;;;;6.50;5.50;;;;;;;5.54;100.00;101946.78;2096442;28;20598;-60
2023/01/29 05:07:49;;;;;;;7.05;5.82;;;;;;;5.24;100.00;101908.13;2105248;28;20206;-60
2023/01/29 05:08:50;;;;;;;6.53;5.57;;;;;;;5.58;100.00;101940.16;2103616;28;20718;-60
2023/01/29 05:09:51;;;;;;;7.18;5.57;;;;;;;5.56;100.00;101926.00;2096653;28;20177;-61
2023/01/29 05:10:54;;;;;;;6.57;5.63;;;;;;;5.69;100.00;101949.38;2105448;28;20178;-60
2023/01/29 05:11:55;;;;;;;6.70;5.88;;;;;;;5.73;100.00;101944.75;2097002;28;20189;-60
2023/01/29 05:12:59;;;;;;;6.67;5.90;;;;;;;5.76;100.00;101941.28;2096936;28;20188;-60
2023/01/29 05:14:03;;;;;;;7.47;6.07;;;;;;;5.45;100.00;101893.97;2103423;28;20556;-60
2023/01/29 05:15:13;;;;;;;6.53;5.80;;;;;;;5.83;100.00;101940.59;2099812;28;20188;-60
2023/01/29 05:16:18;;;;;;;7.10;6.35;;;;;;;5.48;100.00;101890.50;2102288;28;20285;-60
2023/01/29 05:17:19;;;;;;;7.70;6.28;;;;;;;5.81;100.00;101941.00;2105173;28;20548;-60
2023/01/29 05:18:20;;;;;;;7.93;6.65;;;;;;;5.80;100.00;101944.88;2105136;28;20192;-60
2023/01/29 05:19:20;;;;;;;7.27;6.20;;;;;;;5.81;100.00;101946.50;2102218;28;20191;-60
2023/01/29 05:20:21;;;;;;;8.33;6.70;;;;;;;5.82;100.00;101945.31;2096416;28;20265;-60
2023/01/29 05:21:23;;;;;;;9.37;7.23;;;;;;;5.80;100.00;101950.38;2096809;28;20233;-61
2023/01/29 05:22:25;;;;;;;8.27;6.47;;;;;;;5.78;100.00;101949.13;2097089;28;20603;-60
2023/01/29 05:23:25;;;;;;;8.07;6.75;;;;;;;5.78;100.00;101943.63;2096959;28;20188;-60
2023/01/29 05:24:26;;;;;;;9.27;7.50;;;;;;;5.76;100.00;101956.97;2094892;28;20223;-60
2023/01/29 05:25:29;;;;;;;8.87;7.50;;;;;;;5.72;100.00;101950.59;2102175;28;20190;-60
2023/01/29 05:28:03;;;;;;;8.43;7.30;;;;;;;5.19;100.00;101877.44;2112094;28;20185;-60
2023/01/29 05:29:04;;;;;;;9.52;6.97;;;;;;;5.48;100.00;101945.50;2106539;28;20206;-59
2023/01/29 05:30:05;;;;;;;9.10;7.45;;;;;;;4.62;100.00;101804.16;2098399;28;20191;-60
2023/01/29 05:31:05;;;;;;;8.52;7.07;;;;;;;5.58;100.00;101955.84;2095889;28;20199;-60
2023/01/29 05:32:06;;;;;;;9.23;7.50;;;;;;;5.52;100.00;101952.63;2096522;28;20199;-60
2023/01/29 05:33:16;;;;;;;9.60;7.67;;;;;;;5.50;100.00;101952.22;2096990;28;20196;-60
2023/01/29 05:34:16;;;;;;;8.85;7.30;;;;;;;5.54;100.00;101957.78;2102826;28;20190;-60
2023/01/29 05:35:16;;;;;;;9.43;7.77;;;;;;;5.52;100.00;101952.63;2111785;28;20178;-60
2023/01/29 05:36:17;;;;;;;9.83;7.57;;;;;;;5.52;100.00;101960.09;2105455;28;20178;-60
2023/01/29 05:37:17;;;;;;;9.43;7.67;;;;;;;5.46;100.00;101942.31;2113717;28;20681;-60
2023/01/29 05:38:18;;;;;;;9.67;7.30;;;;;;;5.49;100.00;101953.34;2105690;28;20206;-60
2023/01/29 05:39:19;;;;;;;10.67;7.80;;;;;;;5.54;100.00;101957.78;2111875;28;20265;-60
2023/01/29 05:40:19;;;;;;;10.53;8.13;;;;;;;5.46;100.00;101953.31;2107725;28;20202;-60